createdAt,value
2023-05-15T00:00:00.685Z,95541.81
2023-05-15T00:02:36.702Z,95532.13
2023-05-15T00:05:10.952Z,95551.88
2023-05-15T00:07:39.442Z,95542.28
2023-05-15T00:10:08.125Z,95540.75
2023-05-15T00:12:37.152Z,95554.16
2023-05-15T00:15:05.649Z,95536.09
2023-05-15T00:17:34.865Z,95529.00
2023-05-15T00:20:02.721Z,95533.50
2023-05-15T00:22:32.560Z,95525.88
2023-05-15T00:25:00.480Z,95544.16
2023-05-15T00:27:28.735Z,95543.19
2023-05-15T00:29:56.699Z,95539.31
2023-05-15T00:32:24.874Z,95537.28
2023-05-15T00:34:53.673Z,95540.84
2023-05-15T00:37:21.842Z,95525.28
2023-05-15T00:39:50.835Z,95544.28
2023-05-15T00:42:19.755Z,95541.50
2023-05-15T00:44:49.306Z,95556.97
2023-05-15T00:47:19.404Z,95552.63
2023-05-15T00:49:53.136Z,95552.22
2023-05-15T00:52:23.357Z,95527.75
2023-05-15T00:54:51.240Z,95554.31
2023-05-15T00:57:21.855Z,95551.88
2023-05-15T00:59:52.904Z,95553.09
2023-05-15T01:02:21.509Z,95546.59
2023-05-15T01:04:50.245Z,95563.56
2023-05-15T01:07:19.912Z,95558.97
2023-05-15T01:09:49.830Z,95541.19
2023-05-15T01:12:20.167Z,95556.16
2023-05-15T01:14:49.650Z,95563.47
2023-05-15T01:17:17.831Z,95549.72
2023-05-15T01:19:49.950Z,95577.47
2023-05-15T01:22:40.164Z,95580.16
2023-05-15T01:25:20.286Z,95573.00
2023-05-15T01:28:01.609Z,95569.13
2023-05-15T01:30:36.039Z,95573.78
2023-05-15T01:33:13.669Z,95570.38
2023-05-15T01:35:56.261Z,95590.13
2023-05-15T01:38:48.145Z,95575.94
2023-05-15T01:41:32.053Z,95583.97
2023-05-15T01:44:09.184Z,95585.69
2023-05-15T01:46:43.405Z,95589.78
2023-05-15T01:49:14.295Z,95587.34
2023-05-15T01:51:44.746Z,95567.72
2023-05-15T01:54:15.276Z,95571.00
2023-05-15T01:56:46.260Z,95568.38
2023-05-15T01:59:16.904Z,95604.69
2023-05-15T02:01:47.077Z,95589.97
2023-05-15T02:04:16.880Z,95583.69
2023-05-15T02:06:45.044Z,95587.81
2023-05-15T02:09:15.291Z,95582.13
2023-05-15T02:11:43.638Z,95571.31
2023-05-15T02:14:13.535Z,95600.91
2023-05-15T02:16:41.678Z,95578.66
2023-05-15T02:19:10.198Z,95597.69
2023-05-15T02:21:38.022Z,95576.31
2023-05-15T02:24:08.032Z,95579.88
2023-05-15T02:26:51.313Z,95588.97
2023-05-15T02:29:23.619Z,95595.59
2023-05-15T02:32:12.124Z,95582.13
2023-05-15T02:35:04.645Z,95598.19
2023-05-15T02:37:38.053Z,95590.44
2023-05-15T02:40:11.528Z,95583.31
2023-05-15T02:42:42.696Z,95586.19
2023-05-15T02:45:12.169Z,95607.50
2023-05-15T02:47:41.338Z,95607.88
2023-05-15T02:50:11.299Z,95599.50
2023-05-15T02:52:39.249Z,95589.91
2023-05-15T02:55:08.233Z,95598.72
2023-05-15T02:57:36.091Z,95605.44
2023-05-15T03:00:07.675Z,95608.16
2023-05-15T03:02:35.635Z,95599.41
2023-05-15T03:05:03.940Z,95611.19
2023-05-15T03:07:32.377Z,95598.81
2023-05-15T03:10:00.892Z,95620.78
2023-05-15T03:12:28.918Z,95601.41
2023-05-15T03:14:57.406Z,95613.59
2023-05-15T03:17:26.153Z,95608.34
2023-05-15T03:19:54.711Z,95625.16
2023-05-15T03:22:22.824Z,95627.72
2023-05-15T03:24:51.317Z,95615.75
2023-05-15T03:27:21.251Z,95635.47
2023-05-15T03:29:51.308Z,95624.47
2023-05-15T03:32:20.078Z,95618.16
2023-05-15T03:34:48.532Z,95640.69
2023-05-15T03:37:19.115Z,95639.50
2023-05-15T03:39:47.688Z,95637.03
2023-05-15T03:42:15.608Z,95629.31
2023-05-15T03:44:43.894Z,95630.09
2023-05-15T03:47:14.077Z,95644.22
2023-05-15T03:49:42.742Z,95618.78
2023-05-15T03:52:10.964Z,95630.63
2023-05-15T03:54:41.037Z,95640.50
2023-05-15T03:57:08.873Z,95646.81
2023-05-15T03:59:38.325Z,95644.06
2023-05-15T04:02:06.560Z,95638.66
2023-05-15T04:04:36.614Z,95644.44
2023-05-15T04:07:05.898Z,95647.44
2023-05-15T04:09:34.200Z,95646.56
2023-05-15T04:12:02.040Z,95647.78
2023-05-15T04:14:30.336Z,95628.38
2023-05-15T04:16:58.182Z,95645.69
2023-05-15T04:19:26.562Z,95646.53
2023-05-15T04:21:55.355Z,95640.00
2023-05-15T04:24:23.577Z,95604.34
2023-05-15T04:26:51.527Z,95641.19
2023-05-15T04:29:19.917Z,95627.34
2023-05-15T04:31:47.817Z,95639.59
2023-05-15T04:34:17.304Z,95647.09
2023-05-15T04:36:45.765Z,95633.41
2023-05-15T04:39:14.210Z,95636.41
2023-05-15T04:41:42.016Z,95633.13
2023-05-15T04:44:14.503Z,95635.09
2023-05-15T04:46:42.569Z,95636.00
2023-05-15T04:49:10.830Z,95635.03
2023-05-15T04:51:39.530Z,95622.13
2023-05-15T04:54:08.122Z,95652.13
2023-05-15T04:56:36.491Z,95629.44
2023-05-15T04:59:05.390Z,95624.09
2023-05-15T05:01:34.550Z,95619.72
2023-05-15T05:04:02.864Z,95622.31
2023-05-15T05:06:31.012Z,95627.50
2023-05-15T05:09:00.312Z,95629.59
2023-05-15T05:11:28.088Z,95624.88
2023-05-15T05:13:56.268Z,95607.31
2023-05-15T05:16:24.329Z,95631.84
2023-05-15T05:18:52.565Z,95656.00
2023-05-15T05:21:20.439Z,95638.78
2023-05-15T05:23:48.708Z,95640.31
2023-05-15T05:26:16.520Z,95636.69
2023-05-15T05:28:44.747Z,95617.41
2023-05-15T05:31:12.795Z,95624.94
2023-05-15T05:33:41.437Z,95619.16
2023-05-15T05:36:11.279Z,95635.91
2023-05-15T05:38:40.815Z,95645.09
2023-05-15T05:41:08.729Z,95636.91
2023-05-15T05:43:37.009Z,95630.75
2023-05-15T05:46:04.854Z,95631.97
2023-05-15T05:48:33.334Z,95637.56
2023-05-15T05:51:01.864Z,95648.31
2023-05-15T05:53:30.044Z,95660.59
2023-05-15T05:55:57.943Z,95653.19
2023-05-15T05:58:26.771Z,95643.59
2023-05-15T06:00:55.639Z,95648.31
2023-05-15T06:03:24.830Z,95660.22
2023-05-15T06:05:54.042Z,95652.41
2023-05-15T06:08:23.081Z,95659.09
2023-05-15T06:10:50.847Z,95645.59
2023-05-15T06:13:19.317Z,95663.59
2023-05-15T06:15:47.717Z,95657.34
2023-05-15T06:18:15.878Z,95658.22
2023-05-15T06:20:44.048Z,95650.63
2023-05-15T06:23:12.182Z,95656.06
2023-05-15T06:25:40.445Z,95656.50
2023-05-15T06:28:08.810Z,95674.06
2023-05-15T06:30:36.601Z,95665.72
2023-05-15T06:33:04.903Z,95671.75
2023-05-15T06:35:32.919Z,95664.03
2023-05-15T06:38:01.192Z,95669.84
2023-05-15T06:40:29.583Z,95671.00
2023-05-15T06:42:59.057Z,95691.25
2023-05-15T06:45:28.185Z,95672.56
2023-05-15T06:47:58.502Z,95640.84
2023-05-15T06:50:27.984Z,95670.41
2023-05-15T06:52:56.214Z,95667.19
2023-05-15T06:55:24.207Z,95675.16
2023-05-15T06:57:52.566Z,95692.63
2023-05-15T07:00:20.792Z,95686.44
2023-05-15T07:02:49.258Z,95663.91
2023-05-15T07:05:18.038Z,95676.16
2023-05-15T07:07:46.187Z,95671.06
2023-05-15T07:10:14.256Z,95716.41
2023-05-15T07:12:42.511Z,95659.94
2023-05-15T07:15:10.935Z,95681.16
2023-05-15T07:17:39.203Z,95686.28
2023-05-15T07:20:07.749Z,95721.56
2023-05-15T07:22:44.608Z,95680.75
2023-05-15T07:25:20.438Z,95678.09
2023-05-15T07:27:48.623Z,95676.81
2023-05-15T07:30:16.609Z,95692.88
2023-05-15T07:32:44.925Z,95665.97
2023-05-15T07:35:14.271Z,95674.50
2023-05-15T07:37:42.456Z,95670.59
2023-05-15T07:40:10.867Z,95689.66
2023-05-15T07:42:40.116Z,95685.50
2023-05-15T07:45:08.541Z,95653.84
2023-05-15T07:47:36.776Z,95675.63
2023-05-15T07:50:05.047Z,95692.97
2023-05-15T07:52:33.284Z,95673.16
2023-05-15T07:55:01.636Z,95664.69
2023-05-15T07:57:32.296Z,95675.03
2023-05-15T08:00:00.183Z,95679.72
2023-05-15T08:02:28.635Z,95658.09
2023-05-15T08:04:56.718Z,95665.91
2023-05-15T08:07:25.104Z,95660.44
2023-05-15T08:09:52.964Z,95652.28
2023-05-15T08:12:22.393Z,95668.31
2023-05-15T08:14:55.397Z,95647.13
2023-05-15T08:17:26.263Z,95657.53
2023-05-15T08:19:54.512Z,95645.81
2023-05-15T08:22:23.048Z,95652.59
2023-05-15T08:24:50.930Z,95652.03
2023-05-15T08:27:20.768Z,95643.50
2023-05-15T08:29:48.782Z,95664.28
2023-05-15T08:32:16.889Z,95659.38
2023-05-15T08:34:45.107Z,95642.69
2023-05-15T08:37:13.558Z,95633.94
2023-05-15T08:39:41.668Z,95658.59
2023-05-15T08:42:20.360Z,95643.00
2023-05-15T08:44:48.901Z,95644.03
2023-05-15T08:47:19.846Z,95642.00
2023-05-15T08:50:06.054Z,95675.81
2023-05-15T08:52:36.311Z,95651.06
2023-05-15T08:55:05.290Z,95669.84
2023-05-15T08:57:36.454Z,95665.34
2023-05-15T09:00:15.135Z,95652.00
2023-05-15T09:02:43.565Z,95666.38
2023-05-15T09:05:12.351Z,95675.00
2023-05-15T09:07:42.336Z,95647.25
2023-05-15T09:10:10.695Z,95651.06
2023-05-15T09:12:43.958Z,95693.69
2023-05-15T09:15:18.233Z,95679.22
2023-05-15T09:17:47.273Z,95655.13
2023-05-15T09:20:28.951Z,95659.91
2023-05-15T09:23:02.024Z,95651.59
2023-05-15T09:25:42.877Z,95644.63
2023-05-15T09:28:25.848Z,95638.72
2023-05-15T09:31:04.804Z,95659.41
2023-05-15T09:33:35.637Z,95655.34
2023-05-15T09:36:05.180Z,95668.00
2023-05-15T09:38:34.712Z,95641.81
2023-05-15T09:41:08.630Z,95642.06
2023-05-15T09:43:41.602Z,95657.41
2023-05-15T09:46:12.626Z,95658.31
2023-05-15T09:48:41.299Z,95675.66
2023-05-15T09:51:17.609Z,95655.91
2023-05-15T09:53:52.279Z,95622.88
2023-05-15T09:56:20.439Z,95640.47
2023-05-15T09:58:57.208Z,95642.75
2023-05-15T10:01:26.213Z,95631.09
2023-05-15T10:04:03.939Z,95623.31
2023-05-15T10:06:41.189Z,95644.25
2023-05-15T10:09:11.917Z,95621.50
2023-05-15T10:11:44.896Z,95612.97
2023-05-15T10:14:14.610Z,95636.59
2023-05-15T10:16:42.601Z,95663.22
2023-05-15T10:19:12.469Z,95632.38
2023-05-15T10:21:42.441Z,95638.56
2023-05-15T10:24:12.022Z,95636.31
2023-05-15T10:26:43.610Z,95625.88
2023-05-15T10:29:14.765Z,95634.31
2023-05-15T10:31:43.423Z,95632.56
2023-05-15T10:34:12.382Z,95641.31
2023-05-15T10:36:40.362Z,95645.84
2023-05-15T10:39:08.952Z,95624.91
2023-05-15T10:41:39.200Z,95637.66
2023-05-15T10:44:07.923Z,95640.59
2023-05-15T10:46:37.267Z,95632.44
2023-05-15T10:49:06.041Z,95642.97
2023-05-15T10:51:36.490Z,95617.97
2023-05-15T10:54:06.514Z,95634.22
2023-05-15T10:56:37.629Z,95667.41
2023-05-15T10:59:08.757Z,95639.31
2023-05-15T11:01:40.278Z,95635.81
2023-05-15T11:04:11.256Z,95640.66
2023-05-15T11:06:43.073Z,95619.63
2023-05-15T11:09:36.630Z,95617.34
2023-05-15T11:12:06.999Z,95643.09
2023-05-15T11:14:55.177Z,95633.22
2023-05-15T11:17:24.677Z,95648.16
2023-05-15T11:19:53.117Z,95654.97
2023-05-15T11:22:26.102Z,95623.34
2023-05-15T11:25:09.124Z,95657.53
2023-05-15T11:27:40.686Z,95625.72
2023-05-15T11:30:11.578Z,95621.47
2023-05-15T11:32:52.180Z,95603.66
2023-05-15T11:35:28.954Z,95611.91
2023-05-15T11:38:11.027Z,95627.75
2023-05-15T11:40:52.887Z,95613.38
2023-05-15T11:43:29.514Z,95633.16
2023-05-15T11:46:04.216Z,95638.22
2023-05-15T11:48:38.317Z,95607.91
2023-05-15T11:51:17.664Z,95623.22
2023-05-15T11:53:46.366Z,95628.56
2023-05-15T11:56:26.271Z,95619.41
2023-05-15T11:59:02.594Z,95614.31
2023-05-15T12:01:40.781Z,95608.84
2023-05-15T12:04:16.733Z,95594.50
2023-05-15T12:06:47.784Z,95613.63
2023-05-15T12:09:19.725Z,95622.06
2023-05-15T12:11:49.809Z,95618.50
2023-05-15T12:14:17.697Z,95625.91
2023-05-15T12:16:45.951Z,95613.91
2023-05-15T12:19:13.899Z,95626.72
2023-05-15T12:21:47.031Z,95645.88
2023-05-15T12:24:15.128Z,95612.84
2023-05-15T12:26:43.527Z,95619.19
2023-05-15T12:29:11.557Z,95598.78
2023-05-15T12:31:39.975Z,95637.00
2023-05-15T12:34:08.152Z,95636.41
2023-05-15T12:36:36.587Z,95649.50
2023-05-15T12:39:08.237Z,95635.47
2023-05-15T12:41:40.300Z,95642.38
2023-05-15T12:44:16.770Z,95636.28
2023-05-15T12:46:46.430Z,95639.31
2023-05-15T12:49:14.416Z,95640.72
2023-05-15T12:51:44.148Z,95686.56
2023-05-15T12:54:19.581Z,95654.00
2023-05-15T12:56:48.825Z,95658.81
2023-05-15T12:59:16.778Z,95654.22
2023-05-15T13:01:45.552Z,95657.53
2023-05-15T13:04:13.558Z,95673.88
2023-05-15T13:06:46.822Z,95633.81
2023-05-15T13:09:22.987Z,95640.13
2023-05-15T13:11:51.469Z,95643.13
2023-05-15T13:14:19.985Z,95625.88
2023-05-15T13:16:48.237Z,95625.66
2023-05-15T13:19:17.143Z,95622.97
2023-05-15T13:21:50.446Z,95619.06
2023-05-15T13:24:18.414Z,95625.78
2023-05-15T13:26:47.600Z,95629.72
2023-05-15T13:29:15.513Z,95633.56
2023-05-15T13:31:43.911Z,95631.09
2023-05-15T13:34:11.922Z,95637.19
2023-05-15T13:36:40.231Z,95616.66
2023-05-15T13:39:08.501Z,95647.34
2023-05-15T13:41:38.188Z,95637.19
2023-05-15T13:44:08.864Z,95651.91
2023-05-15T13:46:37.229Z,95642.91
2023-05-15T13:49:05.736Z,95631.25
2023-05-15T13:51:34.034Z,95626.94
2023-05-15T13:54:02.079Z,95638.13
2023-05-15T13:56:30.363Z,95641.19
2023-05-15T13:58:58.151Z,95648.66
2023-05-15T14:01:26.600Z,95607.81
2023-05-15T14:03:54.517Z,95645.50
2023-05-15T14:06:22.800Z,95644.25
2023-05-15T14:08:50.600Z,95644.44
2023-05-15T14:11:19.005Z,95642.06
2023-05-15T14:13:47.690Z,95659.09
2023-05-15T14:16:16.006Z,95654.78
2023-05-15T14:18:43.852Z,95661.28
2023-05-15T14:21:16.813Z,95642.63
2023-05-15T14:23:44.722Z,95673.66
2023-05-15T14:26:12.800Z,95671.03
2023-05-15T14:28:40.647Z,95674.91
2023-05-15T14:31:09.167Z,95654.78
2023-05-15T14:33:36.895Z,95663.91
2023-05-15T14:36:05.429Z,95672.03
2023-05-15T14:38:33.211Z,95656.31
2023-05-15T14:41:01.342Z,95674.69
2023-05-15T14:43:30.716Z,95678.50
2023-05-15T14:45:59.186Z,95682.50
2023-05-15T14:48:32.256Z,95680.44
2023-05-15T14:51:01.362Z,95688.06
2023-05-15T14:53:29.200Z,95691.69
2023-05-15T14:55:58.935Z,95686.56
2023-05-15T14:58:27.185Z,95698.00
2023-05-15T15:00:59.339Z,95701.81
2023-05-15T15:03:28.973Z,95703.88
2023-05-15T15:05:58.299Z,95711.69
2023-05-15T15:08:26.289Z,95716.84
2023-05-15T15:10:54.453Z,95711.03
2023-05-15T15:13:22.416Z,95731.25
2023-05-15T15:15:52.037Z,95709.50
2023-05-15T15:18:21.565Z,95728.69
2023-05-15T15:20:49.772Z,95717.78
2023-05-15T15:23:18.398Z,95748.84
2023-05-15T15:25:46.495Z,95729.13
2023-05-15T15:28:14.243Z,95738.09
2023-05-15T15:30:42.440Z,95726.06
2023-05-15T15:33:10.353Z,95750.00
2023-05-15T15:35:38.480Z,95753.22
2023-05-15T15:38:06.655Z,95752.81
2023-05-15T15:40:35.782Z,95760.22
2023-05-15T15:43:03.530Z,95756.25
2023-05-15T15:45:31.710Z,95747.06
2023-05-15T15:47:59.737Z,95769.06
2023-05-15T15:50:28.079Z,95768.75
2023-05-15T15:52:56.568Z,95769.19
2023-05-15T15:55:25.057Z,95773.38
2023-05-15T15:57:52.922Z,95785.97
2023-05-15T16:00:21.284Z,95789.53
2023-05-15T16:02:49.165Z,95790.41
2023-05-15T16:05:17.366Z,95802.59
2023-05-15T16:07:45.332Z,95810.72
2023-05-15T16:10:13.700Z,95813.44
2023-05-15T16:12:42.799Z,95802.66
2023-05-15T16:17:45.673Z,95813.25
2023-05-15T16:20:14.006Z,95806.34
2023-05-15T16:22:43.332Z,95816.66
2023-05-15T16:25:11.747Z,95815.69
2023-05-15T16:27:39.774Z,95828.78
2023-05-15T16:30:09.538Z,95839.75
2023-05-15T16:32:37.512Z,95832.44
2023-05-15T16:35:06.285Z,95839.88
2023-05-15T16:37:34.227Z,95840.25
2023-05-15T16:40:03.069Z,95848.16
2023-05-15T16:42:36.248Z,95850.28
2023-05-15T16:45:05.883Z,95843.53
2023-05-15T16:47:34.217Z,95850.28
2023-05-15T16:50:04.180Z,95861.25
2023-05-15T16:52:33.238Z,95853.94
2023-05-15T16:55:01.953Z,95855.09
2023-05-15T16:57:31.136Z,95862.31
2023-05-15T16:59:59.405Z,95870.22
2023-05-15T17:02:27.427Z,95866.09
2023-05-15T17:04:56.200Z,95865.03
2023-05-15T17:07:24.284Z,95846.59
2023-05-15T17:09:52.682Z,95876.09
2023-05-15T17:12:20.819Z,95862.50
2023-05-15T17:14:49.273Z,95888.41
2023-05-15T17:17:17.799Z,95888.41
2023-05-15T17:19:46.065Z,95886.75
2023-05-15T17:22:14.566Z,95896.09
2023-05-15T17:27:18.720Z,95882.81
2023-05-15T17:29:48.116Z,95903.34
2023-05-15T17:32:17.207Z,95908.81
2023-05-15T17:34:46.313Z,95903.44
2023-05-15T17:37:15.078Z,95902.66
2023-05-15T17:39:43.436Z,95908.88
2023-05-15T17:42:11.420Z,95912.28
2023-05-15T17:44:39.609Z,95899.56
2023-05-15T17:47:08.719Z,95916.47
2023-05-15T17:49:38.119Z,95923.03
2023-05-15T17:52:08.322Z,95916.00
2023-05-15T17:54:36.704Z,95925.03
2023-05-15T17:57:05.289Z,95921.19
2023-05-15T17:59:33.505Z,95926.34
2023-05-15T18:02:03.210Z,95931.63
2023-05-15T18:04:31.561Z,95931.94
2023-05-15T18:06:59.374Z,95925.41
2023-05-15T18:09:27.616Z,95940.00
2023-05-15T18:11:56.844Z,95910.63
2023-05-15T18:14:25.153Z,95931.63
2023-05-15T18:16:53.073Z,95927.91
2023-05-15T18:19:21.513Z,95941.06
2023-05-15T18:21:49.447Z,95921.88
2023-05-15T18:24:17.632Z,95932.41
2023-05-15T18:26:45.794Z,95923.75
2023-05-15T18:29:14.008Z,95935.19
2023-05-15T18:31:41.897Z,95932.25
2023-05-15T18:34:10.681Z,95926.34
2023-05-15T18:36:38.427Z,95932.59
2023-05-15T18:39:07.466Z,95932.59
2023-05-15T18:41:35.517Z,95928.97
2023-05-15T18:44:03.929Z,95929.28
2023-05-15T18:46:32.400Z,95926.00
2023-05-15T18:49:00.802Z,95922.25
2023-05-15T18:51:29.419Z,95904.31
2023-05-15T18:53:57.541Z,95935.44
2023-05-15T18:56:25.594Z,95932.34
2023-05-15T18:58:54.985Z,95921.38
2023-05-15T19:01:22.801Z,95922.91
2023-05-15T19:03:51.313Z,95928.97
2023-05-15T19:06:20.501Z,95937.06
2023-05-15T19:08:49.203Z,95926.75
2023-05-15T19:11:17.619Z,95933.84
2023-05-15T19:13:46.383Z,95937.28
2023-05-15T19:16:14.724Z,95925.44
2023-05-15T19:18:43.160Z,95926.34
2023-05-15T19:21:11.109Z,95914.63
2023-05-15T19:23:39.364Z,95927.91
2023-05-15T19:26:07.272Z,95919.03
2023-05-15T19:28:35.631Z,95919.28
2023-05-15T19:31:04.702Z,95932.25
2023-05-15T19:33:34.246Z,95919.63
2023-05-15T19:36:02.751Z,95934.81
2023-05-15T19:38:31.002Z,95922.28
2023-05-15T19:40:59.017Z,95919.63
2023-05-15T19:43:27.984Z,95908.81
2023-05-15T19:45:55.965Z,95911.66
2023-05-15T19:48:25.281Z,95904.84
2023-05-15T19:50:53.290Z,95913.19
2023-05-15T19:53:21.901Z,95906.25
2023-05-15T19:55:50.786Z,95920.03
2023-05-15T19:58:23.544Z,95920.47
2023-05-15T20:00:53.087Z,95917.88
2023-05-15T20:03:22.467Z,95922.38
2023-05-15T20:05:53.949Z,95915.75
2023-05-15T20:08:22.589Z,95895.81
2023-05-15T20:10:52.717Z,95911.13
2023-05-15T20:13:22.389Z,95918.22
2023-05-15T20:15:58.743Z,95904.28
2023-05-15T20:18:32.131Z,95915.50
2023-05-15T20:21:02.552Z,95894.41
2023-05-15T20:23:31.353Z,95900.91
2023-05-15T20:25:59.955Z,95896.56
2023-05-15T20:28:29.269Z,95902.16
2023-05-15T20:30:57.962Z,95910.22
2023-05-15T20:33:31.966Z,95909.75
2023-05-15T20:36:00.746Z,95911.16
2023-05-15T20:38:29.413Z,95909.91
2023-05-15T20:40:57.605Z,95910.25
2023-05-15T20:43:27.168Z,95902.22
2023-05-15T20:45:55.974Z,95914.75
2023-05-15T20:48:25.521Z,95910.41
2023-05-15T20:50:54.122Z,95909.50
2023-05-15T20:53:22.467Z,95914.00
2023-05-15T20:55:50.296Z,95909.81
2023-05-15T20:58:18.748Z,95920.19
2023-05-15T21:00:46.549Z,95917.56
2023-05-15T21:03:15.443Z,95922.41
2023-05-15T21:05:43.334Z,95913.88
2023-05-15T21:08:11.826Z,95926.56
2023-05-15T21:10:40.766Z,95934.94
2023-05-15T21:13:09.362Z,95920.69
2023-05-15T21:15:37.707Z,95909.44
2023-05-15T21:18:06.016Z,95930.91
2023-05-15T21:20:35.202Z,95926.72
2023-05-15T21:23:03.715Z,95912.81
2023-05-15T21:25:32.906Z,95917.16
2023-05-15T21:28:02.587Z,95921.47
2023-05-15T21:30:32.203Z,95922.72
2023-05-15T21:33:00.602Z,95904.16
2023-05-15T21:35:29.230Z,95908.19
2023-05-15T21:37:58.008Z,95915.75
2023-05-15T21:40:26.004Z,95916.69
2023-05-15T21:42:54.637Z,95912.22
2023-05-15T21:45:22.587Z,95907.25
2023-05-15T21:47:50.884Z,95901.09
2023-05-15T21:50:18.738Z,95905.06
2023-05-15T21:52:47.115Z,95903.53
2023-05-15T21:55:15.279Z,95902.00
2023-05-15T21:57:43.430Z,95908.50
2023-05-15T22:00:11.654Z,95909.25
2023-05-15T22:02:40.135Z,95913.41
2023-05-15T22:05:08.807Z,95905.09
2023-05-15T22:07:37.007Z,95907.56
2023-05-15T22:10:05.500Z,95880.53
2023-05-15T22:12:34.520Z,95894.41
2023-05-15T22:15:02.740Z,95893.97
2023-05-15T22:17:32.940Z,95898.59
2023-05-15T22:20:08.332Z,95890.25
2023-05-15T22:22:36.855Z,95897.66
2023-05-15T22:25:05.918Z,95894.88
2023-05-15T22:27:34.357Z,95890.84
2023-05-15T22:30:03.048Z,95898.84
2023-05-15T22:32:33.592Z,95883.84
2023-05-15T22:35:03.897Z,95891.44
2023-05-15T22:37:33.119Z,95888.34
2023-05-15T22:40:01.273Z,95895.75
2023-05-15T22:42:32.887Z,95885.25
2023-05-15T22:45:02.415Z,95893.25
2023-05-15T22:47:31.776Z,95886.16
2023-05-15T22:50:00.086Z,95892.66
2023-05-15T22:52:28.434Z,95894.81
2023-05-15T22:54:56.270Z,95894.81
2023-05-15T22:57:24.557Z,95899.91
2023-05-15T22:59:52.372Z,95895.09
2023-05-15T23:02:23.634Z,95899.13
2023-05-15T23:04:51.483Z,95907.16
2023-05-15T23:07:20.876Z,95904.69
2023-05-15T23:09:49.162Z,95904.69
2023-05-15T23:12:17.360Z,95902.16
2023-05-15T23:14:45.448Z,95907.88
2023-05-15T23:17:13.649Z,95909.09
2023-05-15T23:19:41.453Z,95919.47
2023-05-15T23:22:09.616Z,95911.75
2023-05-15T23:24:40.020Z,95909.56
2023-05-15T23:27:08.515Z,95909.09
2023-05-15T23:29:36.890Z,95910.63
2023-05-15T23:32:06.642Z,95914.47
2023-05-15T23:34:35.010Z,95915.34
2023-05-15T23:37:03.121Z,95909.63
2023-05-15T23:39:30.974Z,95905.78
2023-05-15T23:42:00.336Z,95914.41
2023-05-15T23:44:28.539Z,95913.50
2023-05-15T23:46:59.857Z,95914.84
2023-05-15T23:49:28.254Z,95923.38
2023-05-15T23:51:56.472Z,95918.22
2023-05-15T23:54:24.279Z,95914.63
2023-05-15T23:56:52.506Z,95916.81
2023-05-15T23:59:20.747Z,95920.69
